METAR Data
IDs: Format: Raw Decoded Include TAF

Data at: 2232 UTC 10 May 2021

KGUC 102156Z AUTO 24016G26KT 10SM FEW060 11/M03 A3000 RMK AO2 PK WND 26028/2127 SLP129 T01061028
KGUC 102056Z AUTO 24016G26KT 10SM CLR 12/M03 A2999 RMK AO2 PK WND 25028/2012 SLP114 T01221033 53002
KGUC 101956Z AUTO 26019G29KT 10SM CLR 12/M04 A2998 RMK AO2 PK WND 25033/1946 SLP111 T01221039
KGUC 101856Z AUTO 28018G26KT 10SM FEW060 12/M03 A2996 RMK AO2 PK WND 25027/1846 SLP103 T01221033
KGUC 101756Z AUTO 23013G21KT 10SM CLR 12/M05 A2998 RMK AO2 SLP112 T01171050 10117 20000 58009
KGUC 101656Z AUTO 23008KT 10SM CLR 09/M03 A2999 RMK AO2 SLP119 T00891028
KGUC 101556Z AUTO 00000KT 10SM CLR 07/M02 A3001 RMK AO2 SLP128 T00671022
KGUC 101456Z AUTO 35003KT 10SM FEW100 06/M02 A3002 RMK AO2 SLP131 T00561017 56006
KGUC 101356Z AUTO 04006KT 10SM CLR 04/M02 A3003 RMK AO2 SLP138 T00391017
KGUC 101256Z AUTO 35006KT 10SM SCT085 01/M02 A3002 RMK AO2 SLP142 T00111022 FZRANO
KGUC 101156Z AUTO 35006KT 10SM SCT100 00/M03 A3004 RMK AO2 SLP149 60000 T00001028 10056 20000 56008 FZRANO
KGUC 101056Z AUTO 35005KT 10SM CLR 01/M03 A3004 RMK AO2 SLP145 T00111028 FZRANO
KGUC 100956Z AUTO 34003KT 10SM CLR 02/M02 A3006 RMK AO2 SLP143 T00221017 FZRANO
KGUC 100856Z AUTO 12004KT 10SM SCT065 BKN090 04/M02 A3007 RMK AO2 RAB05E15 SLP143 P0000 60000 T00391017 58003
KGUC 100756Z AUTO 36004KT 10SM SCT042 OVC055 04/M02 A3008 RMK AO2 SLP149 T00441017
KGUC 100656Z AUTO 33005KT 10SM BKN046 OVC060 06/M03 A3008 RMK AO2 SLP146 T00561033
KGUC 100556Z AUTO 34007KT 10SM BKN055 OVC080 05/M03 A3008 RMK AO2 SLP147 T00501033 10106 20050 401331039 51008
KGUC 100456Z AUTO 01004KT 10SM FEW110 06/M05 A3007 RMK AO2 SLP145 T00611050
KGUC 100356Z AUTO 29004KT 10SM FEW095 07/M06 A3007 RMK AO2 SLP149 T00721056
KGUC 100256Z AUTO 21003KT 10SM OVC095 08/M07 A3005 RMK AO2 SLP146 T00831072 53006
KGUC 100156Z AUTO 29008G25KT 10SM BKN065 OVC080 09/M09 A3003 RMK AO2 SLP150 T00941089
KGUC 100056Z AUTO 24010G16KT 10SM BKN080 10/M09 A3003 RMK AO2 SLP159 T01001089
KGUC 092356Z AUTO 31013G18KT 10SM SCT060 BKN080 OVC090 11/M09 A3003 RMK AO2 PK WND 28026/2332 SLP154 T01061094 10133 20100 53005
KGUC 092256Z AUTO 28014G22KT 10SM CLR 12/M12 A3000 RMK AO2 SLP136 T01171117
KGUC 092156Z AUTO 26020G29KT 10SM FEW100 13/M11 A3000 RMK AO2 PK WND 26029/2156 SLP130 T01331111
KGUC 092056Z AUTO 25014G25KT 10SM CLR 13/M11 A3001 RMK AO2 PK WND 25027/2010 SLP132 T01281111 58007
KGUC 091956Z AUTO 26017G34KT 250V310 10SM CLR 12/M13 A3002 RMK AO2 PK WND 29034/1948 SLP131 T01221128
KGUC 091856Z AUTO 26014G20KT 10SM CLR 12/M13 A3004 RMK AO2 SLP135 T01171128
KGUC 091756Z AUTO 23013G21KT 10SM CLR 11/M13 A3004 RMK AO2 SLP128 T01111133 10117 21039 56013
KGUC 091656Z AUTO 23010G19KT 10SM CLR 11/M13 A3004 RMK AO2 SLP131 T01061133
KGUC 091556Z AUTO 26007KT 10SM CLR 07/M12 A3006 RMK AO2 SLP141 T00721117
KGUC 091456Z AUTO 26004KT 10SM CLR 05/M11 A3008 RMK AO2 SLP148 T00501106 50006
KGUC 091356Z AUTO 00000KT 10SM CLR 00/M08 A3010 RMK AO2 SLP163 T00001083 FZRANO
KGUC 091256Z AUTO 00000KT 10SM CLR M04/M09 A3008 RMK AO2 SLP164 T10391089 FZRANO
KGUC 091156Z AUTO 36003KT 10SM CLR M03/M09 A3006 RMK AO2 SLP153 T10331094 10061 21039 51006 FZRANO
KGUC 091056Z AUTO 36003KT 10SM CLR M02/M08 A3006 RMK AO2 SLP149 T10221083 FZRANO